sensor_id;sensor_type;location;lat;lon;timestamp;P1;durP1;ratioP1;P2;durP2;ratioP2
73632;SDS011;61927;50.080;14.418;2023-05-07T00:00:21;15.40;;;9.80;;
73632;SDS011;61927;50.080;14.418;2023-05-07T00:03:07;14.15;;;9.27;;
73632;SDS011;61927;50.080;14.418;2023-05-07T00:05:32;13.45;;;9.45;;
73632;SDS011;61927;50.080;14.418;2023-05-07T00:07:58;13.60;;;8.48;;
73632;SDS011;61927;50.080;14.418;2023-05-07T00:10:24;14.25;;;10.07;;
73632;SDS011;61927;50.080;14.418;2023-05-07T00:12:50;14.35;;;8.50;;
73632;SDS011;61927;50.080;14.418;2023-05-07T00:15:16;12.13;;;8.75;;
73632;SDS011;61927;50.080;14.418;2023-05-07T00:17:42;10.88;;;8.30;;
73632;SDS011;61927;50.080;14.418;2023-05-07T00:20:07;12.27;;;9.13;;
73632;SDS011;61927;50.080;14.418;2023-05-07T00:22:33;13.10;;;8.55;;
73632;SDS011;61927;50.080;14.418;2023-05-07T00:24:59;14.15;;;9.07;;
73632;SDS011;61927;50.080;14.418;2023-05-07T00:27:25;14.60;;;9.27;;
73632;SDS011;61927;50.080;14.418;2023-05-07T00:29:51;14.32;;;8.55;;
73632;SDS011;61927;50.080;14.418;2023-05-07T00:32:16;16.10;;;9.60;;
73632;SDS011;61927;50.080;14.418;2023-05-07T00:34:42;14.38;;;9.40;;
73632;SDS011;61927;50.080;14.418;2023-05-07T00:37:08;15.15;;;9.70;;
73632;SDS011;61927;50.080;14.418;2023-05-07T00:39:34;13.68;;;9.45;;
73632;SDS011;61927;50.080;14.418;2023-05-07T00:42:00;15.05;;;9.38;;
73632;SDS011;61927;50.080;14.418;2023-05-07T00:44:26;15.38;;;9.63;;
73632;SDS011;61927;50.080;14.418;2023-05-07T00:46:52;13.63;;;9.00;;
73632;SDS011;61927;50.080;14.418;2023-05-07T00:49:19;15.45;;;9.25;;
73632;SDS011;61927;50.080;14.418;2023-05-07T00:51:45;13.38;;;9.00;;
73632;SDS011;61927;50.080;14.418;2023-05-07T00:54:11;17.38;;;9.20;;
73632;SDS011;61927;50.080;14.418;2023-05-07T00:56:38;12.38;;;8.68;;
73632;SDS011;61927;50.080;14.418;2023-05-07T00:59:05;16.63;;;10.38;;
73632;SDS011;61927;50.080;14.418;2023-05-07T01:01:31;16.25;;;9.85;;
73632;SDS011;61927;50.080;14.418;2023-05-07T01:03:57;16.08;;;9.10;;
73632;SDS011;61927;50.080;14.418;2023-05-07T01:06:23;15.02;;;9.57;;
73632;SDS011;61927;50.080;14.418;2023-05-07T01:08:50;16.13;;;9.60;;
73632;SDS011;61927;50.080;14.418;2023-05-07T01:11:18;12.82;;;8.45;;
73632;SDS011;61927;50.080;14.418;2023-05-07T01:13:46;14.10;;;9.25;;
73632;SDS011;61927;50.080;14.418;2023-05-07T01:16:13;12.93;;;8.32;;
73632;SDS011;61927;50.080;14.418;2023-05-07T01:18:38;13.68;;;8.10;;
73632;SDS011;61927;50.080;14.418;2023-05-07T01:21:04;12.98;;;8.57;;
73632;SDS011;61927;50.080;14.418;2023-05-07T01:23:32;11.73;;;8.05;;
73632;SDS011;61927;50.080;14.418;2023-05-07T01:25:59;13.50;;;7.95;;
73632;SDS011;61927;50.080;14.418;2023-05-07T01:28:24;10.77;;;7.82;;
73632;SDS011;61927;50.080;14.418;2023-05-07T01:30:52;12.85;;;7.63;;
73632;SDS011;61927;50.080;14.418;2023-05-07T01:33:20;10.10;;;7.43;;
73632;SDS011;61927;50.080;14.418;2023-05-07T01:35:48;11.90;;;8.70;;
73632;SDS011;61927;50.080;14.418;2023-05-07T01:38:16;11.30;;;7.78;;
73632;SDS011;61927;50.080;14.418;2023-05-07T01:40:43;14.20;;;8.77;;
73632;SDS011;61927;50.080;14.418;2023-05-07T01:43:09;13.82;;;8.52;;
73632;SDS011;61927;50.080;14.418;2023-05-07T01:45:35;11.15;;;7.70;;
73632;SDS011;61927;50.080;14.418;2023-05-07T01:48:02;12.45;;;8.15;;
73632;SDS011;61927;50.080;14.418;2023-05-07T01:50:28;10.40;;;7.57;;
73632;SDS011;61927;50.080;14.418;2023-05-07T01:52:55;15.20;;;8.35;;
73632;SDS011;61927;50.080;14.418;2023-05-07T01:55:20;11.65;;;8.02;;
73632;SDS011;61927;50.080;14.418;2023-05-07T01:57:47;11.63;;;7.43;;
73632;SDS011;61927;50.080;14.418;2023-05-07T02:00:12;10.60;;;8.18;;
73632;SDS011;61927;50.080;14.418;2023-05-07T02:02:38;10.63;;;7.88;;
73632;SDS011;61927;50.080;14.418;2023-05-07T02:05:04;12.15;;;8.30;;
73632;SDS011;61927;50.080;14.418;2023-05-07T02:07:30;12.45;;;8.35;;
73632;SDS011;61927;50.080;14.418;2023-05-07T02:09:56;13.15;;;8.57;;
73632;SDS011;61927;50.080;14.418;2023-05-07T02:12:22;11.07;;;7.90;;
73632;SDS011;61927;50.080;14.418;2023-05-07T02:14:49;10.18;;;7.20;;
73632;SDS011;61927;50.080;14.418;2023-05-07T02:17:18;11.18;;;7.45;;
73632;SDS011;61927;50.080;14.418;2023-05-07T02:19:44;12.43;;;7.72;;
73632;SDS011;61927;50.080;14.418;2023-05-07T02:22:10;10.50;;;7.35;;
73632;SDS011;61927;50.080;14.418;2023-05-07T02:24:36;12.95;;;8.00;;
73632;SDS011;61927;50.080;14.418;2023-05-07T02:27:02;10.02;;;7.60;;
73632;SDS011;61927;50.080;14.418;2023-05-07T02:29:28;10.00;;;7.50;;
73632;SDS011;61927;50.080;14.418;2023-05-07T02:31:54;15.95;;;7.53;;
73632;SDS011;61927;50.080;14.418;2023-05-07T02:34:20;10.15;;;7.20;;
73632;SDS011;61927;50.080;14.418;2023-05-07T02:36:48;10.48;;;7.35;;
73632;SDS011;61927;50.080;14.418;2023-05-07T02:39:14;12.05;;;7.35;;
73632;SDS011;61927;50.080;14.418;2023-05-07T02:41:40;8.93;;;7.60;;
73632;SDS011;61927;50.080;14.418;2023-05-07T02:44:06;11.18;;;8.35;;
73632;SDS011;61927;50.080;14.418;2023-05-07T02:46:31;9.98;;;7.20;;
73632;SDS011;61927;50.080;14.418;2023-05-07T02:48:57;12.68;;;7.55;;
73632;SDS011;61927;50.080;14.418;2023-05-07T02:51:23;9.10;;;7.40;;
73632;SDS011;61927;50.080;14.418;2023-05-07T02:53:48;9.82;;;7.40;;
73632;SDS011;61927;50.080;14.418;2023-05-07T02:56:15;11.35;;;8.02;;
73632;SDS011;61927;50.080;14.418;2023-05-07T02:58:41;15.18;;;7.80;;
73632;SDS011;61927;50.080;14.418;2023-05-07T03:01:09;10.32;;;7.32;;
73632;SDS011;61927;50.080;14.418;2023-05-07T03:03:35;15.13;;;8.25;;
73632;SDS011;61927;50.080;14.418;2023-05-07T03:06:01;11.15;;;7.45;;
73632;SDS011;61927;50.080;14.418;2023-05-07T03:08:26;11.38;;;7.60;;
73632;SDS011;61927;50.080;14.418;2023-05-07T03:10:52;10.07;;;7.85;;
73632;SDS011;61927;50.080;14.418;2023-05-07T03:13:18;10.68;;;8.20;;
73632;SDS011;61927;50.080;14.418;2023-05-07T03:15:43;13.10;;;8.38;;
73632;SDS011;61927;50.080;14.418;2023-05-07T03:18:09;12.65;;;7.70;;
73632;SDS011;61927;50.080;14.418;2023-05-07T03:20:35;12.50;;;7.90;;
73632;SDS011;61927;50.080;14.418;2023-05-07T03:23:01;11.23;;;7.78;;
73632;SDS011;61927;50.080;14.418;2023-05-07T03:25:27;11.07;;;7.88;;
73632;SDS011;61927;50.080;14.418;2023-05-07T03:27:55;15.38;;;8.73;;
73632;SDS011;61927;50.080;14.418;2023-05-07T03:30:21;13.52;;;7.78;;
73632;SDS011;61927;50.080;14.418;2023-05-07T03:32:47;10.82;;;8.25;;
73632;SDS011;61927;50.080;14.418;2023-05-07T03:35:12;13.48;;;7.95;;
73632;SDS011;61927;50.080;14.418;2023-05-07T03:37:38;12.65;;;8.35;;
73632;SDS011;61927;50.080;14.418;2023-05-07T03:40:05;12.52;;;7.93;;
73632;SDS011;61927;50.080;14.418;2023-05-07T03:42:31;11.43;;;8.30;;
73632;SDS011;61927;50.080;14.418;2023-05-07T03:44:57;11.48;;;8.27;;
73632;SDS011;61927;50.080;14.418;2023-05-07T03:47:23;14.18;;;8.88;;
73632;SDS011;61927;50.080;14.418;2023-05-07T03:49:48;13.35;;;8.73;;
73632;SDS011;61927;50.080;14.418;2023-05-07T03:52:15;17.70;;;9.10;;
73632;SDS011;61927;50.080;14.418;2023-05-07T03:54:41;12.38;;;8.55;;
73632;SDS011;61927;50.080;14.418;2023-05-07T03:57:07;13.57;;;8.57;;
73632;SDS011;61927;50.080;14.418;2023-05-07T03:59:32;11.38;;;7.78;;
73632;SDS011;61927;50.080;14.418;2023-05-07T04:01:58;12.15;;;8.50;;
73632;SDS011;61927;50.080;14.418;2023-05-07T04:04:23;12.65;;;8.52;;
73632;SDS011;61927;50.080;14.418;2023-05-07T04:06:49;10.77;;;8.07;;
73632;SDS011;61927;50.080;14.418;2023-05-07T04:09:15;11.02;;;7.45;;
73632;SDS011;61927;50.080;14.418;2023-05-07T04:11:40;11.70;;;8.00;;
73632;SDS011;61927;50.080;14.418;2023-05-07T04:14:06;10.70;;;7.00;;
73632;SDS011;61927;50.080;14.418;2023-05-07T04:16:32;9.45;;;6.55;;
73632;SDS011;61927;50.080;14.418;2023-05-07T04:18:57;10.02;;;6.60;;
73632;SDS011;61927;50.080;14.418;2023-05-07T04:21:23;8.50;;;5.47;;
73632;SDS011;61927;50.080;14.418;2023-05-07T04:23:48;8.63;;;5.95;;
73632;SDS011;61927;50.080;14.418;2023-05-07T04:26:15;6.82;;;5.35;;
73632;SDS011;61927;50.080;14.418;2023-05-07T04:28:41;6.95;;;5.55;;
73632;SDS011;61927;50.080;14.418;2023-05-07T04:31:07;8.18;;;5.35;;
73632;SDS011;61927;50.080;14.418;2023-05-07T04:33:33;10.98;;;5.65;;
73632;SDS011;61927;50.080;14.418;2023-05-07T04:36:02;6.97;;;5.93;;
73632;SDS011;61927;50.080;14.418;2023-05-07T04:38:32;9.35;;;5.70;;
73632;SDS011;61927;50.080;14.418;2023-05-07T04:41:04;7.20;;;5.78;;
73632;SDS011;61927;50.080;14.418;2023-05-07T04:43:31;8.55;;;5.90;;
73632;SDS011;61927;50.080;14.418;2023-05-07T04:45:56;7.47;;;5.85;;
73632;SDS011;61927;50.080;14.418;2023-05-07T04:48:22;6.68;;;5.88;;
73632;SDS011;61927;50.080;14.418;2023-05-07T04:50:48;8.23;;;5.15;;
73632;SDS011;61927;50.080;14.418;2023-05-07T04:53:14;7.55;;;5.40;;
73632;SDS011;61927;50.080;14.418;2023-05-07T04:55:40;7.78;;;5.72;;
73632;SDS011;61927;50.080;14.418;2023-05-07T04:58:06;6.40;;;5.63;;
73632;SDS011;61927;50.080;14.418;2023-05-07T05:00:32;6.50;;;5.30;;
73632;SDS011;61927;50.080;14.418;2023-05-07T05:02:59;7.38;;;5.80;;
73632;SDS011;61927;50.080;14.418;2023-05-07T05:05:24;8.73;;;6.05;;
73632;SDS011;61927;50.080;14.418;2023-05-07T05:07:50;9.43;;;6.80;;
73632;SDS011;61927;50.080;14.418;2023-05-07T05:10:17;7.18;;;5.80;;
73632;SDS011;61927;50.080;14.418;2023-05-07T05:12:42;8.07;;;6.40;;
73632;SDS011;61927;50.080;14.418;2023-05-07T05:15:09;8.30;;;6.10;;
73632;SDS011;61927;50.080;14.418;2023-05-07T05:17:36;8.43;;;5.95;;
73632;SDS011;61927;50.080;14.418;2023-05-07T05:20:02;7.57;;;5.85;;
73632;SDS011;61927;50.080;14.418;2023-05-07T05:22:28;6.18;;;5.53;;
73632;SDS011;61927;50.080;14.418;2023-05-07T05:24:56;7.10;;;5.45;;
73632;SDS011;61927;50.080;14.418;2023-05-07T05:27:22;7.22;;;5.70;;
73632;SDS011;61927;50.080;14.418;2023-05-07T05:29:48;8.55;;;5.75;;
73632;SDS011;61927;50.080;14.418;2023-05-07T05:32:13;9.32;;;6.40;;
73632;SDS011;61927;50.080;14.418;2023-05-07T05:34:39;7.72;;;5.70;;
73632;SDS011;61927;50.080;14.418;2023-05-07T05:37:05;7.80;;;5.50;;
73632;SDS011;61927;50.080;14.418;2023-05-07T05:39:30;6.45;;;5.10;;
73632;SDS011;61927;50.080;14.418;2023-05-07T05:41:56;6.72;;;5.68;;
73632;SDS011;61927;50.080;14.418;2023-05-07T05:44:22;6.25;;;5.65;;
73632;SDS011;61927;50.080;14.418;2023-05-07T05:46:47;5.63;;;4.85;;
73632;SDS011;61927;50.080;14.418;2023-05-07T05:49:15;7.05;;;5.45;;
73632;SDS011;61927;50.080;14.418;2023-05-07T05:51:40;7.35;;;5.20;;
73632;SDS011;61927;50.080;14.418;2023-05-07T05:54:06;7.03;;;4.93;;
73632;SDS011;61927;50.080;14.418;2023-05-07T05:56:32;8.93;;;5.35;;
73632;SDS011;61927;50.080;14.418;2023-05-07T05:58:58;6.55;;;5.00;;
73632;SDS011;61927;50.080;14.418;2023-05-07T06:01:23;8.13;;;4.97;;
73632;SDS011;61927;50.080;14.418;2023-05-07T06:03:49;5.13;;;4.63;;
73632;SDS011;61927;50.080;14.418;2023-05-07T06:06:15;6.72;;;5.05;;
73632;SDS011;61927;50.080;14.418;2023-05-07T06:08:41;8.82;;;4.65;;
73632;SDS011;61927;50.080;14.418;2023-05-07T06:11:06;4.65;;;4.25;;
73632;SDS011;61927;50.080;14.418;2023-05-07T06:13:32;6.63;;;4.78;;
73632;SDS011;61927;50.080;14.418;2023-05-07T06:15:58;6.18;;;4.93;;
73632;SDS011;61927;50.080;14.418;2023-05-07T06:18:23;8.35;;;5.03;;
73632;SDS011;61927;50.080;14.418;2023-05-07T06:20:51;5.03;;;4.20;;
73632;SDS011;61927;50.080;14.418;2023-05-07T06:23:17;5.20;;;4.47;;
73632;SDS011;61927;50.080;14.418;2023-05-07T06:25:47;7.10;;;4.30;;
73632;SDS011;61927;50.080;14.418;2023-05-07T06:28:14;10.98;;;4.22;;
73632;SDS011;61927;50.080;14.418;2023-05-07T06:30:39;10.50;;;4.70;;
73632;SDS011;61927;50.080;14.418;2023-05-07T06:33:05;13.95;;;4.15;;
73632;SDS011;61927;50.080;14.418;2023-05-07T06:35:31;15.00;;;5.18;;
73632;SDS011;61927;50.080;14.418;2023-05-07T06:37:56;9.13;;;4.20;;
73632;SDS011;61927;50.080;14.418;2023-05-07T06:40:22;7.15;;;3.95;;
73632;SDS011;61927;50.080;14.418;2023-05-07T06:42:48;6.45;;;3.97;;
73632;SDS011;61927;50.080;14.418;2023-05-07T06:45:13;4.85;;;3.95;;
73632;SDS011;61927;50.080;14.418;2023-05-07T06:47:39;8.23;;;4.40;;
73632;SDS011;61927;50.080;14.418;2023-05-07T06:50:05;4.43;;;4.03;;
73632;SDS011;61927;50.080;14.418;2023-05-07T06:52:31;5.35;;;4.10;;
73632;SDS011;61927;50.080;14.418;2023-05-07T06:54:57;6.07;;;4.65;;
73632;SDS011;61927;50.080;14.418;2023-05-07T06:57:23;4.40;;;4.00;;
73632;SDS011;61927;50.080;14.418;2023-05-07T06:59:49;4.05;;;3.60;;
73632;SDS011;61927;50.080;14.418;2023-05-07T07:02:15;4.40;;;4.00;;
73632;SDS011;61927;50.080;14.418;2023-05-07T07:04:40;4.00;;;3.60;;
73632;SDS011;61927;50.080;14.418;2023-05-07T07:07:07;4.07;;;3.67;;
73632;SDS011;61927;50.080;14.418;2023-05-07T07:09:33;4.20;;;3.80;;
73632;SDS011;61927;50.080;14.418;2023-05-07T07:11:58;3.92;;;3.63;;
73632;SDS011;61927;50.080;14.418;2023-05-07T07:14:24;5.32;;;4.00;;
73632;SDS011;61927;50.080;14.418;2023-05-07T07:16:50;4.45;;;3.90;;
73632;SDS011;61927;50.080;14.418;2023-05-07T07:19:16;3.72;;;3.42;;
73632;SDS011;61927;50.080;14.418;2023-05-07T07:21:42;3.95;;;3.65;;
73632;SDS011;61927;50.080;14.418;2023-05-07T07:24:07;3.97;;;3.40;;
73632;SDS011;61927;50.080;14.418;2023-05-07T07:26:33;4.55;;;3.90;;
73632;SDS011;61927;50.080;14.418;2023-05-07T07:28:59;3.80;;;3.50;;
73632;SDS011;61927;50.080;14.418;2023-05-07T07:31:25;3.45;;;3.08;;
73632;SDS011;61927;50.080;14.418;2023-05-07T07:33:50;3.38;;;2.97;;
73632;SDS011;61927;50.080;14.418;2023-05-07T07:36:16;3.45;;;3.10;;
73632;SDS011;61927;50.080;14.418;2023-05-07T07:38:41;3.40;;;3.10;;
73632;SDS011;61927;50.080;14.418;2023-05-07T07:41:07;3.60;;;3.30;;
73632;SDS011;61927;50.080;14.418;2023-05-07T07:43:33;3.28;;;2.90;;
73632;SDS011;61927;50.080;14.418;2023-05-07T07:45:59;6.15;;;2.95;;
73632;SDS011;61927;50.080;14.418;2023-05-07T07:48:25;11.15;;;3.25;;
73632;SDS011;61927;50.080;14.418;2023-05-07T07:50:50;3.22;;;2.97;;
73632;SDS011;61927;50.080;14.418;2023-05-07T07:53:16;3.30;;;3.05;;
73632;SDS011;61927;50.080;14.418;2023-05-07T07:55:42;5.05;;;3.40;;
73632;SDS011;61927;50.080;14.418;2023-05-07T07:58:07;3.60;;;3.30;;
73632;SDS011;61927;50.080;14.418;2023-05-07T08:00:33;5.82;;;3.45;;
73632;SDS011;61927;50.080;14.418;2023-05-07T08:02:59;5.95;;;3.47;;
73632;SDS011;61927;50.080;14.418;2023-05-07T08:05:25;4.53;;;3.67;;
73632;SDS011;61927;50.080;14.418;2023-05-07T08:07:51;4.32;;;3.92;;
73632;SDS011;61927;50.080;14.418;2023-05-07T08:10:18;3.67;;;3.35;;
73632;SDS011;61927;50.080;14.418;2023-05-07T08:12:49;6.80;;;3.80;;
73632;SDS011;61927;50.080;14.418;2023-05-07T08:15:16;8.20;;;3.70;;
73632;SDS011;61927;50.080;14.418;2023-05-07T08:17:42;10.63;;;4.95;;
73632;SDS011;61927;50.080;14.418;2023-05-07T08:20:08;4.15;;;3.72;;
73632;SDS011;61927;50.080;14.418;2023-05-07T08:22:35;4.00;;;3.63;;
73632;SDS011;61927;50.080;14.418;2023-05-07T08:25:01;3.95;;;3.65;;
73632;SDS011;61927;50.080;14.418;2023-05-07T08:27:27;5.65;;;4.25;;
73632;SDS011;61927;50.080;14.418;2023-05-07T08:29:53;4.78;;;4.05;;
73632;SDS011;61927;50.080;14.418;2023-05-07T08:32:18;5.20;;;4.15;;
73632;SDS011;61927;50.080;14.418;2023-05-07T08:34:44;4.65;;;4.25;;
73632;SDS011;61927;50.080;14.418;2023-05-07T08:37:10;5.00;;;4.35;;
73632;SDS011;61927;50.080;14.418;2023-05-07T08:39:36;4.95;;;4.28;;
73632;SDS011;61927;50.080;14.418;2023-05-07T08:42:01;6.85;;;5.35;;
73632;SDS011;61927;50.080;14.418;2023-05-07T08:44:33;5.75;;;4.57;;
73632;SDS011;61927;50.080;14.418;2023-05-07T08:47:02;8.80;;;4.93;;
73632;SDS011;61927;50.080;14.418;2023-05-07T08:49:31;3.90;;;3.60;;
73632;SDS011;61927;50.080;14.418;2023-05-07T08:51:58;4.38;;;3.80;;
73632;SDS011;61927;50.080;14.418;2023-05-07T08:54:24;6.38;;;3.83;;
73632;SDS011;61927;50.080;14.418;2023-05-07T08:56:51;5.35;;;4.75;;
73632;SDS011;61927;50.080;14.418;2023-05-07T08:59:17;4.60;;;3.97;;
73632;SDS011;61927;50.080;14.418;2023-05-07T09:01:42;5.68;;;4.30;;
73632;SDS011;61927;50.080;14.418;2023-05-07T09:04:08;4.75;;;4.22;;
73632;SDS011;61927;50.080;14.418;2023-05-07T09:06:34;8.98;;;4.72;;
73632;SDS011;61927;50.080;14.418;2023-05-07T09:09:00;4.50;;;4.05;;
73632;SDS011;61927;50.080;14.418;2023-05-07T09:11:26;5.32;;;4.07;;
73632;SDS011;61927;50.080;14.418;2023-05-07T09:13:55;5.38;;;3.80;;
73632;SDS011;61927;50.080;14.418;2023-05-07T09:16:23;6.65;;;4.18;;
73632;SDS011;61927;50.080;14.418;2023-05-07T09:18:52;5.05;;;4.35;;
73632;SDS011;61927;50.080;14.418;2023-05-07T09:21:19;6.85;;;4.30;;
73632;SDS011;61927;50.080;14.418;2023-05-07T09:23:50;8.32;;;4.07;;
73632;SDS011;61927;50.080;14.418;2023-05-07T09:26:16;7.20;;;4.35;;
73632;SDS011;61927;50.080;14.418;2023-05-07T09:28:44;4.38;;;3.97;;
73632;SDS011;61927;50.080;14.418;2023-05-07T09:31:11;3.63;;;3.33;;
73632;SDS011;61927;50.080;14.418;2023-05-07T09:33:38;10.57;;;3.85;;
73632;SDS011;61927;50.080;14.418;2023-05-07T09:36:05;7.50;;;3.80;;
73632;SDS011;61927;50.080;14.418;2023-05-07T09:38:32;4.75;;;3.70;;
73632;SDS011;61927;50.080;14.418;2023-05-07T09:41:02;5.25;;;3.83;;
73632;SDS011;61927;50.080;14.418;2023-05-07T09:43:33;5.00;;;3.60;;
73632;SDS011;61927;50.080;14.418;2023-05-07T09:46:06;6.93;;;4.35;;
73632;SDS011;61927;50.080;14.418;2023-05-07T09:48:42;6.43;;;4.07;;
73632;SDS011;61927;50.080;14.418;2023-05-07T09:54:11;3.70;;;3.22;;
73632;SDS011;61927;50.080;14.418;2023-05-07T09:56:37;3.53;;;3.22;;
73632;SDS011;61927;50.080;14.418;2023-05-07T09:59:03;8.32;;;5.25;;
73632;SDS011;61927;50.080;14.418;2023-05-07T10:01:32;3.83;;;3.50;;
73632;SDS011;61927;50.080;14.418;2023-05-07T10:04:01;13.35;;;5.40;;
73632;SDS011;61927;50.080;14.418;2023-05-07T10:06:28;8.40;;;3.58;;
73632;SDS011;61927;50.080;14.418;2023-05-07T10:08:55;8.65;;;3.70;;
73632;SDS011;61927;50.080;14.418;2023-05-07T10:11:21;6.03;;;4.20;;
73632;SDS011;61927;50.080;14.418;2023-05-07T10:13:47;10.38;;;8.52;;
73632;SDS011;61927;50.080;14.418;2023-05-07T10:16:13;9.20;;;4.22;;
73632;SDS011;61927;50.080;14.418;2023-05-07T10:18:43;3.90;;;3.60;;
73632;SDS011;61927;50.080;14.418;2023-05-07T10:21:27;5.05;;;3.30;;
73632;SDS011;61927;50.080;14.418;2023-05-07T10:23:58;6.20;;;3.92;;
73632;SDS011;61927;50.080;14.418;2023-05-07T10:26:45;3.92;;;3.50;;
73632;SDS011;61927;50.080;14.418;2023-05-07T10:31:57;3.72;;;3.42;;
73632;SDS011;61927;50.080;14.418;2023-05-07T10:34:34;4.82;;;3.80;;
73632;SDS011;61927;50.080;14.418;2023-05-07T10:37:03;5.30;;;3.72;;
73632;SDS011;61927;50.080;14.418;2023-05-07T10:39:29;4.13;;;3.70;;
73632;SDS011;61927;50.080;14.418;2023-05-07T10:41:55;3.80;;;3.33;;
73632;SDS011;61927;50.080;14.418;2023-05-07T10:44:25;4.13;;;3.72;;
73632;SDS011;61927;50.080;14.418;2023-05-07T10:47:08;4.45;;;4.00;;
73632;SDS011;61927;50.080;14.418;2023-05-07T10:52:17;3.60;;;3.30;;
73632;SDS011;61927;50.080;14.418;2023-05-07T10:55:18;4.38;;;3.38;;
73632;SDS011;61927;50.080;14.418;2023-05-07T10:57:44;4.85;;;4.45;;
73632;SDS011;61927;50.080;14.418;2023-05-07T11:00:41;12.80;;;4.78;;
73632;SDS011;61927;50.080;14.418;2023-05-07T11:05:28;8.30;;;4.05;;
73632;SDS011;61927;50.080;14.418;2023-05-07T11:07:59;8.98;;;6.35;;
73632;SDS011;61927;50.080;14.418;2023-05-07T11:13:18;6.32;;;3.70;;
73632;SDS011;61927;50.080;14.418;2023-05-07T11:16:04;7.53;;;4.75;;
73632;SDS011;61927;50.080;14.418;2023-05-07T11:18:47;4.85;;;3.80;;
73632;SDS011;61927;50.080;14.418;2023-05-07T11:21:31;4.40;;;3.33;;
73632;SDS011;61927;50.080;14.418;2023-05-07T11:24:01;8.02;;;3.40;;
73632;SDS011;61927;50.080;14.418;2023-05-07T11:26:29;4.90;;;4.40;;
73632;SDS011;61927;50.080;14.418;2023-05-07T11:28:56;9.70;;;5.00;;
73632;SDS011;61927;50.080;14.418;2023-05-07T11:31:25;15.50;;;8.55;;
73632;SDS011;61927;50.080;14.418;2023-05-07T11:33:53;4.45;;;4.07;;
73632;SDS011;61927;50.080;14.418;2023-05-07T11:36:19;4.55;;;4.15;;
73632;SDS011;61927;50.080;14.418;2023-05-07T11:38:47;12.02;;;7.20;;
73632;SDS011;61927;50.080;14.418;2023-05-07T11:41:13;4.75;;;4.32;;
73632;SDS011;61927;50.080;14.418;2023-05-07T11:43:53;6.20;;;4.20;;
73632;SDS011;61927;50.080;14.418;2023-05-07T11:46:20;9.43;;;6.28;;
73632;SDS011;61927;50.080;14.418;2023-05-07T11:48:45;5.55;;;4.82;;
73632;SDS011;61927;50.080;14.418;2023-05-07T11:51:11;4.65;;;3.80;;
73632;SDS011;61927;50.080;14.418;2023-05-07T11:53:43;7.35;;;4.82;;
73632;SDS011;61927;50.080;14.418;2023-05-07T11:56:13;5.25;;;4.30;;
73632;SDS011;61927;50.080;14.418;2023-05-07T11:58:39;6.20;;;4.43;;
73632;SDS011;61927;50.080;14.418;2023-05-07T12:01:07;5.03;;;4.53;;
73632;SDS011;61927;50.080;14.418;2023-05-07T12:03:36;5.65;;;4.30;;
73632;SDS011;61927;50.080;14.418;2023-05-07T12:06:05;10.63;;;5.45;;
73632;SDS011;61927;50.080;14.418;2023-05-07T12:08:31;7.03;;;4.25;;
73632;SDS011;61927;50.080;14.418;2023-05-07T12:10:57;4.68;;;4.28;;
73632;SDS011;61927;50.080;14.418;2023-05-07T12:13:24;7.00;;;4.45;;
73632;SDS011;61927;50.080;14.418;2023-05-07T12:15:54;8.18;;;4.55;;
73632;SDS011;61927;50.080;14.418;2023-05-07T12:18:21;3.78;;;3.40;;
73632;SDS011;61927;50.080;14.418;2023-05-07T12:20:48;4.63;;;3.70;;
73632;SDS011;61927;50.080;14.418;2023-05-07T12:23:14;4.15;;;3.83;;
73632;SDS011;61927;50.080;14.418;2023-05-07T12:25:42;4.63;;;4.07;;
73632;SDS011;61927;50.080;14.418;2023-05-07T12:28:18;4.97;;;3.53;;
73632;SDS011;61927;50.080;14.418;2023-05-07T12:30:45;6.18;;;3.38;;
73632;SDS011;61927;50.080;14.418;2023-05-07T12:33:16;6.93;;;4.70;;
73632;SDS011;61927;50.080;14.418;2023-05-07T12:35:43;3.78;;;3.40;;
73632;SDS011;61927;50.080;14.418;2023-05-07T12:38:13;3.30;;;3.10;;
73632;SDS011;61927;50.080;14.418;2023-05-07T12:40:41;4.18;;;3.72;;
73632;SDS011;61927;50.080;14.418;2023-05-07T12:43:15;6.45;;;3.72;;
73632;SDS011;61927;50.080;14.418;2023-05-07T12:45:51;8.35;;;3.30;;
73632;SDS011;61927;50.080;14.418;2023-05-07T12:48:19;4.38;;;3.47;;
73632;SDS011;61927;50.080;14.418;2023-05-07T12:50:45;7.43;;;3.35;;
73632;SDS011;61927;50.080;14.418;2023-05-07T12:53:14;10.73;;;3.35;;
73632;SDS011;61927;50.080;14.418;2023-05-07T12:55:42;4.18;;;3.75;;
73632;SDS011;61927;50.080;14.418;2023-05-07T12:58:07;7.47;;;5.60;;
73632;SDS011;61927;50.080;14.418;2023-05-07T13:03:00;3.10;;;2.88;;
73632;SDS011;61927;50.080;14.418;2023-05-07T13:05:26;6.32;;;3.05;;
73632;SDS011;61927;50.080;14.418;2023-05-07T13:07:52;16.73;;;3.85;;
73632;SDS011;61927;50.080;14.418;2023-05-07T13:10:19;4.95;;;2.85;;
73632;SDS011;61927;50.080;14.418;2023-05-07T13:12:44;4.53;;;3.42;;
73632;SDS011;61927;50.080;14.418;2023-05-07T13:15:10;3.88;;;3.03;;
73632;SDS011;61927;50.080;14.418;2023-05-07T13:17:36;5.65;;;3.25;;
73632;SDS011;61927;50.080;14.418;2023-05-07T13:20:01;4.07;;;2.97;;
73632;SDS011;61927;50.080;14.418;2023-05-07T13:22:27;3.55;;;3.13;;
73632;SDS011;61927;50.080;14.418;2023-05-07T13:24:53;4.57;;;3.47;;
73632;SDS011;61927;50.080;14.418;2023-05-07T13:27:18;9.20;;;5.13;;
73632;SDS011;61927;50.080;14.418;2023-05-07T13:29:45;3.55;;;3.30;;
73632;SDS011;61927;50.080;14.418;2023-05-07T13:32:10;3.50;;;3.20;;
73632;SDS011;61927;50.080;14.418;2023-05-07T13:34:36;5.43;;;4.90;;
73632;SDS011;61927;50.080;14.418;2023-05-07T13:37:02;3.13;;;2.90;;
73632;SDS011;61927;50.080;14.418;2023-05-07T13:39:28;6.40;;;3.17;;
73632;SDS011;61927;50.080;14.418;2023-05-07T13:41:53;3.13;;;2.92;;
73632;SDS011;61927;50.080;14.418;2023-05-07T13:44:19;3.40;;;3.10;;
73632;SDS011;61927;50.080;14.418;2023-05-07T13:46:44;2.90;;;2.70;;
73632;SDS011;61927;50.080;14.418;2023-05-07T13:49:10;2.88;;;2.70;;
73632;SDS011;61927;50.080;14.418;2023-05-07T13:51:37;3.40;;;3.20;;
73632;SDS011;61927;50.080;14.418;2023-05-07T13:54:03;4.13;;;3.72;;
73632;SDS011;61927;50.080;14.418;2023-05-07T13:56:29;5.10;;;3.58;;
73632;SDS011;61927;50.080;14.418;2023-05-07T13:58:57;3.40;;;3.10;;
73632;SDS011;61927;50.080;14.418;2023-05-07T14:01:23;6.03;;;3.10;;
73632;SDS011;61927;50.080;14.418;2023-05-07T14:03:49;10.40;;;2.85;;
73632;SDS011;61927;50.080;14.418;2023-05-07T14:06:15;8.38;;;4.47;;
73632;SDS011;61927;50.080;14.418;2023-05-07T14:08:40;3.22;;;2.90;;
73632;SDS011;61927;50.080;14.418;2023-05-07T14:11:06;3.25;;;2.80;;
73632;SDS011;61927;50.080;14.418;2023-05-07T14:13:32;6.95;;;3.53;;
73632;SDS011;61927;50.080;14.418;2023-05-07T14:15:59;3.28;;;3.08;;
73632;SDS011;61927;50.080;14.418;2023-05-07T14:18:26;5.93;;;3.10;;
73632;SDS011;61927;50.080;14.418;2023-05-07T14:20:53;3.40;;;3.10;;
73632;SDS011;61927;50.080;14.418;2023-05-07T14:23:19;9.70;;;2.60;;
73632;SDS011;61927;50.080;14.418;2023-05-07T14:25:50;5.32;;;2.97;;
73632;SDS011;61927;50.080;14.418;2023-05-07T14:28:16;3.63;;;3.25;;
73632;SDS011;61927;50.080;14.418;2023-05-07T14:30:42;3.63;;;3.33;;
73632;SDS011;61927;50.080;14.418;2023-05-07T14:33:07;3.60;;;3.30;;
73632;SDS011;61927;50.080;14.418;2023-05-07T14:35:33;3.83;;;3.50;;
73632;SDS011;61927;50.080;14.418;2023-05-07T14:37:58;4.65;;;4.25;;
73632;SDS011;61927;50.080;14.418;2023-05-07T14:40:25;7.60;;;5.05;;
73632;SDS011;61927;50.080;14.418;2023-05-07T14:42:50;3.80;;;3.50;;
73632;SDS011;61927;50.080;14.418;2023-05-07T14:45:16;6.30;;;3.65;;